Accueil
METAR-TAF:

METAR-TAF

Aéroports :

Dübendorf, Suisse

latitude: 47-23-55N, longitude: 8-38-53E, altitude: 448 m

Observation

Le bulletin a été fait il y a 24 minutes, à 02:20 UTC
Vent 9 kt de ouest, variant entre sud-ouest et ouest/nord-ouest
Température 5°C
Humidité 81%
Pression 1021 hPa
Visibilité 10 km ou plus
Quelques nuages à une hauteur de 1200 ft
Nuages épars à une hauteur de 5700 ft
Nuages fragmentés à une hauteur de 14000 ft
faibles averses de pluie

METAR: LSMD 100220Z AUTO 27009KT 230V300 9999NDV -SHRA FEW012 SCT057 BKN140 05/02 Q1021 RMK

Heure: 03:44 (02:44 UTC)


TAF: absent

Observations et prévisions météorologiques de plus de 4000 aéroports (messages METAR et TAF).

Les stations disponibles sont représentées par des disques jaunes et rouges sur la carte.

Passer la souris dessus pour voir le nom de la station.

Cliquer dessus pour voir les observations et prévisions météorologiques.

Pour changer de carte: cliquez sur les boutons verts avec une croix noire pour zoomer, sur le bouton vert avec un tiret pour effectuer un zoom arrière, ou sur les flèches vertes pour les cartes adjacentes.


METAR-TAF: